Greenville Downtown Airport
KGMU : now visible

Airfield :











YOU CAN JOIN US ON...

 
LOGIN :

Register | Disclaimer

   EN    FR    IT 

 









Legend :    VFR   Marginal VFR   IFR   Intensive IFR   Very Intensive IFR
Visi :
Ceiling :
>= 8 km
>= 3000ft
5 to 8 km
1000 to 3000 ft
1500m to 5 km
500 to 1000 ft
800 to 1500m
200 to 500 ft
< 800m
< 200 ft
Symbols :   Thunderstorms  Fog  Heavy snow  Heavy precipitations  Wind > 20 kt






- Airport Elevation : 1048 ft


KGMU - Greenville Downtown

CURRENT METAR :
  • 190253Z AUTO 14007KT 8SM -RA FEW008 OVC100 13/12 A3008 RMK AO2 PRESFR SLP185 P0002 60008 T01280117 58008

EXPIRED METARs :
  • 190230Z 20004KT 7SM -RA SCT010 OVC100 13/12 A3011 RMK AO2 P0001 T01280122
  • 190217Z 20004KT 7SM -RA BKN010 BKN070 OVC120 13/12 A3011 RMK AO2 CIG 009V015 P0000 T01280122
  • 190153Z 21003KT 8SM -RA SCT011 OVC110 13/12 A3011 RMK AO2 SLP193 P0002 T01280122
  • 190112Z 26003KT 4SM -RA BR BKN010 OVC090 13/12 A3012 RMK AO2 P0001 T01280122
  • 190053Z 00000KT 6SM -RA BR SCT011 BKN065 OVC095 13/12 A3010 RMK AO2 SLP193 P0004 T01280122
  • 190032Z 00000KT 5SM RA BR BKN012 BKN026 OVC100 13/12 A3011 RMK AO2 P0002 T01280122

TAF KGMU
Valid from the 19 at 00:00 until the 20 at 00:00 UTC


182340Z 1900/1924 00000KT P6SM -RA SCT013 BKN090
TEMPO 1904/1908 2SM RA BR OVC004
FM190800 35007KT 3SM -SHRA BR OVC008
FM191300 04008KT 5SM BR OVC012
FM191500 05007KT P6SM BKN025



MET'MAP, your aeronautical weather chart ! - Copyright ORBIFLY December 2007 - Disclaimer

ORBIFLY MET'MAP TEAM :

Programming & Development : Alexandra Zaïnal
Concept & original design : Baudouin d'Aumeries
Assistance for programming : Marc-Olivier Méhu
Technical & hardware support : Manuel Goepfert

Contact : metmap@orbifly.com




SOURCES & CREDITS :

   NOAA       Earth
Advisory